createdAt,value
2022-11-14T00:02:38.852Z,65.00
2022-11-14T00:05:24.798Z,51.50
2022-11-14T00:08:28.685Z,51.60
2022-11-14T00:11:14.533Z,52.00
2022-11-14T00:14:00.197Z,48.10
2022-11-14T00:16:46.271Z,55.80
2022-11-14T00:19:31.955Z,52.80
2022-11-14T00:22:17.437Z,49.30
2022-11-14T00:25:04.478Z,49.10
2022-11-14T00:27:50.234Z,52.50
2022-11-14T00:30:35.884Z,51.50
2022-11-14T00:33:21.463Z,47.70
2022-11-14T00:36:07.054Z,48.00
2022-11-14T00:38:54.953Z,55.80
2022-11-14T00:41:43.327Z,56.70
2022-11-14T00:44:28.827Z,64.80
2022-11-14T00:47:14.340Z,59.10
2022-11-14T00:50:00.113Z,53.10
2022-11-14T00:52:45.388Z,59.30
2022-11-14T00:55:30.966Z,52.30
2022-11-14T00:58:16.749Z,54.00
2022-11-14T01:01:02.197Z,64.80
2022-11-14T01:03:52.414Z,75.00
2022-11-14T01:06:37.614Z,175.80
2022-11-14T01:09:23.494Z,139.40
2022-11-14T01:12:09.265Z,78.90
2022-11-14T01:14:55.090Z,78.00
2022-11-14T01:17:40.694Z,73.30
2022-11-14T01:20:26.113Z,67.10
2022-11-14T01:23:14.081Z,59.40
2022-11-14T01:26:09.449Z,60.30
2022-11-14T01:28:54.667Z,60.00
2022-11-14T01:31:40.378Z,51.40
2022-11-14T01:34:26.666Z,49.10
2022-11-14T01:37:11.929Z,123.00
2022-11-14T01:39:57.730Z,105.10
2022-11-14T01:42:43.363Z,88.70
2022-11-14T01:45:47.782Z,77.00
2022-11-14T01:49:05.313Z,69.30
2022-11-14T01:54:49.838Z,61.50
2022-11-14T01:57:45.851Z,63.50
2022-11-14T02:00:31.806Z,63.30
2022-11-14T02:03:19.390Z,56.10
2022-11-14T02:06:08.894Z,60.80
2022-11-14T02:08:56.896Z,67.70
2022-11-14T02:11:45.506Z,57.80
2022-11-14T02:14:32.836Z,64.20
2022-11-14T02:17:29.615Z,62.90
2022-11-14T02:20:22.128Z,57.70
2022-11-14T02:23:07.691Z,59.80
2022-11-14T02:25:53.272Z,67.50
2022-11-14T02:28:38.852Z,52.60
2022-11-14T02:31:24.434Z,64.30
2022-11-14T02:34:10.018Z,55.10
2022-11-14T02:36:56.025Z,60.20
2022-11-14T02:39:41.794Z,47.80
2022-11-14T02:42:27.367Z,42.80
2022-11-14T02:45:13.707Z,53.40
2022-11-14T02:47:59.358Z,50.20
2022-11-14T02:50:44.935Z,52.60
2022-11-14T02:53:30.429Z,50.50
2022-11-14T02:56:16.055Z,61.10
2022-11-14T02:59:02.379Z,54.20
2022-11-14T03:01:48.059Z,54.90
2022-11-14T03:04:33.556Z,54.60
2022-11-14T03:07:19.313Z,60.70
2022-11-14T03:10:06.159Z,52.00
2022-11-14T03:12:56.760Z,65.10
2022-11-14T03:15:42.017Z,56.60
2022-11-14T03:18:27.561Z,70.00
2022-11-14T03:21:17.795Z,60.70
2022-11-14T03:24:03.793Z,59.80
2022-11-14T03:26:49.380Z,66.80
2022-11-14T03:29:35.061Z,51.80
2022-11-14T03:32:20.517Z,53.80
2022-11-14T03:35:07.543Z,54.50
2022-11-14T03:37:56.369Z,113.90
2022-11-14T03:40:42.505Z,108.00
2022-11-14T03:43:33.570Z,82.20
2022-11-14T03:46:19.030Z,61.20
2022-11-14T03:49:05.327Z,68.70
2022-11-14T03:51:51.014Z,61.60
2022-11-14T03:54:36.457Z,60.40
2022-11-14T03:57:21.934Z,67.40
2022-11-14T04:00:09.465Z,59.00
2022-11-14T04:02:56.639Z,51.90
2022-11-14T04:05:46.464Z,55.50
2022-11-14T04:08:33.229Z,56.50
2022-11-14T04:11:20.087Z,51.00
2022-11-14T04:14:06.056Z,52.30
2022-11-14T04:16:51.687Z,55.40
2022-11-14T04:19:37.540Z,65.70
2022-11-14T04:22:23.330Z,58.10
2022-11-14T04:25:10.349Z,70.20
2022-11-14T04:27:55.750Z,61.50
2022-11-14T04:30:41.619Z,74.40
2022-11-14T04:33:27.858Z,64.70
2022-11-14T04:36:13.490Z,49.10
2022-11-14T04:38:59.481Z,46.60
2022-11-14T04:41:45.024Z,44.00
2022-11-14T04:44:30.466Z,45.50
2022-11-14T04:47:15.918Z,57.20
2022-11-14T04:50:02.098Z,100.20
2022-11-14T04:52:47.573Z,63.60
2022-11-14T04:55:33.586Z,57.40
2022-11-14T04:58:18.960Z,53.80
2022-11-14T05:01:10.773Z,43.50
2022-11-14T05:03:56.375Z,51.10
2022-11-14T05:06:42.162Z,81.30
2022-11-14T05:09:28.774Z,64.50
2022-11-14T05:12:14.161Z,68.80
2022-11-14T05:14:59.799Z,66.90
2022-11-14T05:17:45.406Z,97.80
2022-11-14T05:20:31.118Z,97.00
2022-11-14T05:23:22.721Z,77.10
2022-11-14T05:26:13.402Z,67.40
2022-11-14T05:28:58.986Z,77.60
2022-11-14T05:31:44.679Z,80.70
2022-11-14T05:34:30.262Z,67.50
2022-11-14T05:37:15.795Z,71.10
2022-11-14T05:40:02.536Z,67.80
2022-11-14T05:42:48.133Z,65.30
2022-11-14T05:45:33.666Z,64.80
2022-11-14T05:48:18.984Z,58.00
2022-11-14T05:51:06.932Z,59.10
2022-11-14T05:53:52.447Z,67.20
2022-11-14T05:56:38.068Z,70.00
2022-11-14T05:59:23.759Z,62.80
2022-11-14T06:02:09.924Z,70.00
2022-11-14T06:04:55.514Z,69.10
2022-11-14T06:07:41.153Z,69.20
2022-11-14T06:10:27.637Z,60.70
2022-11-14T06:13:13.188Z,61.90
2022-11-14T06:16:08.026Z,69.70
2022-11-14T06:18:54.926Z,61.30
2022-11-14T06:21:40.353Z,55.30
2022-11-14T06:24:26.092Z,55.90
2022-11-14T06:27:11.415Z,55.00
2022-11-14T06:29:57.046Z,61.30
2022-11-14T06:32:42.516Z,54.40
2022-11-14T06:35:28.290Z,54.00
2022-11-14T06:38:13.688Z,60.20
2022-11-14T06:41:21.010Z,51.30
2022-11-14T06:44:08.921Z,51.30
2022-11-14T06:46:55.187Z,53.90
2022-11-14T06:49:41.125Z,63.60
2022-11-14T06:52:27.323Z,66.90
2022-11-14T06:55:12.887Z,68.90
2022-11-14T06:57:58.420Z,63.90
2022-11-14T07:00:43.923Z,62.30
2022-11-14T07:03:29.524Z,51.30
2022-11-14T07:06:24.278Z,59.60
2022-11-14T07:09:11.846Z,60.20
2022-11-14T07:11:57.583Z,61.10
2022-11-14T07:14:42.910Z,54.10
2022-11-14T07:17:31.273Z,57.60
2022-11-14T07:20:20.533Z,54.20
2022-11-14T07:23:05.854Z,61.60
2022-11-14T07:25:51.949Z,65.60
2022-11-14T07:28:41.587Z,64.90
2022-11-14T07:31:27.263Z,60.50
2022-11-14T07:34:12.653Z,62.30
2022-11-14T07:36:58.194Z,53.80
2022-11-14T07:39:43.774Z,54.10
2022-11-14T07:42:30.006Z,53.90
2022-11-14T07:45:15.981Z,55.20
2022-11-14T07:48:02.991Z,47.70
2022-11-14T07:50:48.537Z,43.50
2022-11-14T07:53:34.563Z,54.90
2022-11-14T07:56:22.290Z,44.80
2022-11-14T07:59:07.878Z,59.30
2022-11-14T08:01:53.237Z,64.40
2022-11-14T08:04:38.837Z,59.20
2022-11-14T08:07:24.271Z,61.90
2022-11-14T08:10:12.058Z,47.30
2022-11-14T08:13:25.268Z,55.40
2022-11-14T08:16:12.878Z,50.00
2022-11-14T08:18:59.614Z,50.80
2022-11-14T08:21:45.349Z,57.20
2022-11-14T08:24:30.870Z,50.60
2022-11-14T08:27:16.669Z,50.50
2022-11-14T08:30:02.039Z,51.60
2022-11-14T08:32:47.304Z,54.20
2022-11-14T08:35:34.280Z,56.10
2022-11-14T08:38:19.630Z,52.70
2022-11-14T08:41:05.496Z,54.90
2022-11-14T08:43:51.250Z,56.90
2022-11-14T08:46:36.601Z,58.60
2022-11-14T08:49:22.209Z,64.50
2022-11-14T08:52:09.296Z,65.20
2022-11-14T08:54:57.704Z,65.90
2022-11-14T08:57:49.053Z,69.30
2022-11-14T09:00:34.985Z,74.80
2022-11-14T09:03:20.859Z,66.30
2022-11-14T09:06:06.778Z,69.50
2022-11-14T09:08:52.303Z,67.80
2022-11-14T09:11:37.644Z,62.40
2022-11-14T09:14:23.532Z,71.70
2022-11-14T09:17:09.528Z,74.70
2022-11-14T09:19:55.953Z,71.10
2022-11-14T09:22:41.213Z,77.50
2022-11-14T09:25:27.220Z,66.60
2022-11-14T09:28:12.928Z,86.50
2022-11-14T09:31:10.874Z,89.40
2022-11-14T09:33:56.431Z,89.00
2022-11-14T09:36:41.786Z,69.60
2022-11-14T09:39:27.228Z,83.50
2022-11-14T09:42:39.283Z,78.10
2022-11-14T09:45:25.785Z,77.00
2022-11-14T09:48:18.433Z,79.00
2022-11-14T09:51:15.377Z,90.10
2022-11-14T09:54:19.074Z,90.30
2022-11-14T09:57:16.481Z,78.40
2022-11-14T10:00:02.356Z,80.90
2022-11-14T10:03:06.274Z,84.90
2022-11-14T10:06:33.196Z,79.80
2022-11-14T10:12:51.372Z,83.20
2022-11-14T10:15:48.280Z,80.90
2022-11-14T10:19:23.283Z,88.70
2022-11-14T10:22:27.877Z,70.40
2022-11-14T10:25:27.934Z,84.10
2022-11-14T10:28:22.079Z,73.20
2022-11-14T10:32:11.827Z,15.60
2022-11-14T10:35:12.998Z,11.60
2022-11-14T10:38:07.247Z,9.00
2022-11-14T10:41:02.213Z,11.10
2022-11-14T10:43:50.782Z,7.90
2022-11-14T10:46:41.353Z,8.80
2022-11-14T10:49:32.665Z,7.40
2022-11-14T10:52:36.475Z,9.80
2022-11-14T10:55:32.041Z,5.40
2022-11-14T10:58:28.355Z,6.00
2022-11-14T11:01:56.786Z,5.80
2022-11-14T11:04:45.233Z,7.30
2022-11-14T11:07:49.032Z,6.20
2022-11-14T11:11:05.146Z,6.20
2022-11-14T11:13:57.388Z,6.00
2022-11-14T11:16:43.146Z,7.30
2022-11-14T11:19:31.126Z,5.60
2022-11-14T11:22:39.169Z,8.70
2022-11-14T11:25:29.283Z,6.80
2022-11-14T11:28:21.361Z,7.00
2022-11-14T11:31:10.641Z,6.40
2022-11-14T11:34:04.087Z,7.20
2022-11-14T11:37:14.670Z,6.70
2022-11-14T11:40:06.724Z,6.40
2022-11-14T11:46:28.706Z,7.60
2022-11-14T11:49:43.596Z,7.10
2022-11-14T11:52:30.252Z,8.70
2022-11-14T11:55:25.473Z,7.80
2022-11-14T11:58:21.758Z,7.60
2022-11-14T12:01:12.190Z,7.20
2022-11-14T12:03:58.735Z,7.20
2022-11-14T12:07:43.628Z,7.40
2022-11-14T12:10:36.383Z,6.90
2022-11-14T12:14:07.007Z,6.80
2022-11-14T12:17:44.923Z,11.20
2022-11-14T12:20:40.906Z,6.60
2022-11-14T12:23:56.702Z,7.40
2022-11-14T12:27:03.378Z,8.10
2022-11-14T12:30:24.250Z,6.90
2022-11-14T12:33:53.824Z,8.90
2022-11-14T12:36:44.159Z,7.10
2022-11-14T12:39:32.983Z,7.80
2022-11-14T12:42:21.890Z,8.00
2022-11-14T12:45:41.330Z,7.40
2022-11-14T12:48:26.796Z,9.70
2022-11-14T12:51:30.270Z,9.20
2022-11-14T12:54:49.292Z,7.80
2022-11-14T12:58:06.217Z,7.70
2022-11-14T13:01:00.019Z,10.70
2022-11-14T13:04:03.956Z,8.40
2022-11-14T13:07:51.605Z,8.40
2022-11-14T13:10:40.896Z,9.10
2022-11-14T13:13:45.194Z,9.20
2022-11-14T13:16:51.156Z,8.30
2022-11-14T13:20:05.107Z,10.00
2022-11-14T13:22:50.886Z,8.90
2022-11-14T13:25:36.271Z,11.80
2022-11-14T13:28:49.994Z,8.60
2022-11-14T13:31:38.659Z,9.50
2022-11-14T13:34:42.623Z,9.20
2022-11-14T13:38:18.330Z,16.40
2022-11-14T13:41:47.374Z,8.50
2022-11-14T13:44:51.436Z,11.00
2022-11-14T13:48:34.717Z,18.40
2022-11-14T13:54:31.337Z,8.90
2022-11-14T13:58:12.459Z,7.20
2022-11-14T14:01:15.995Z,16.90
2022-11-14T14:04:33.837Z,10.20
2022-11-14T14:08:05.343Z,9.30
2022-11-14T14:10:53.805Z,10.40
2022-11-14T14:13:45.494Z,26.60
2022-11-14T14:16:52.127Z,9.10
2022-11-14T14:19:52.188Z,11.10
2022-11-14T14:23:08.490Z,9.50
2022-11-14T14:26:29.502Z,9.60
2022-11-14T14:30:07.856Z,13.90
2022-11-14T14:33:11.782Z,12.40
2022-11-14T14:35:57.517Z,8.00
2022-11-14T14:38:43.098Z,23.90
2022-11-14T14:41:32.766Z,9.90
2022-11-14T14:44:37.191Z,9.20
2022-11-14T14:47:45.611Z,10.50
2022-11-14T14:50:42.016Z,8.70
2022-11-14T14:53:32.032Z,11.00
2022-11-14T14:56:21.310Z,11.40
2022-11-14T14:59:24.835Z,11.20
2022-11-14T15:02:22.704Z,11.90
2022-11-14T15:05:08.574Z,12.80
2022-11-14T15:08:00.242Z,10.60
2022-11-14T15:10:46.514Z,7.70
2022-11-14T15:13:34.252Z,7.30
2022-11-14T15:19:10.579Z,7.70
2022-11-14T15:22:20.250Z,10.60
2022-11-14T15:25:12.077Z,12.80
2022-11-14T15:28:00.800Z,24.20
2022-11-14T15:31:04.892Z,13.90
2022-11-14T15:34:33.449Z,7.70
2022-11-14T15:37:22.993Z,9.20
2022-11-14T15:40:21.036Z,10.10
2022-11-14T15:43:44.150Z,9.20
2022-11-14T15:46:47.281Z,10.50
2022-11-14T15:49:32.666Z,7.60
2022-11-14T15:52:41.450Z,6.60
2022-11-14T15:55:27.155Z,8.50
2022-11-14T15:58:27.703Z,12.70
2022-11-14T16:01:24.074Z,9.50
2022-11-14T16:04:23.337Z,9.40
2022-11-14T16:07:14.795Z,8.10
2022-11-14T16:10:00.449Z,8.80
2022-11-14T16:12:52.065Z,6.30
2022-11-14T16:15:38.625Z,7.10
2022-11-14T16:18:24.120Z,13.90
2022-11-14T16:21:18.452Z,8.10
2022-11-14T16:24:05.359Z,7.80
2022-11-14T16:26:50.964Z,9.30
2022-11-14T16:29:36.354Z,8.60
2022-11-14T16:32:23.529Z,9.60
2022-11-14T16:35:18.153Z,9.80
2022-11-14T16:38:04.269Z,9.60
2022-11-14T16:40:49.851Z,10.60
2022-11-14T16:43:35.914Z,10.70
2022-11-14T16:46:22.147Z,11.30
2022-11-14T16:49:07.505Z,9.30
2022-11-14T16:51:55.963Z,10.90
2022-11-14T16:54:41.347Z,10.60
2022-11-14T16:57:27.147Z,13.60
2022-11-14T17:00:13.735Z,22.00
2022-11-14T17:02:59.113Z,14.00
2022-11-14T17:05:48.509Z,7.30
2022-11-14T17:08:34.976Z,13.40
2022-11-14T17:11:21.079Z,6.70
2022-11-14T17:14:08.015Z,10.60
2022-11-14T17:16:53.778Z,8.80
2022-11-14T17:19:45.764Z,8.80
2022-11-14T17:22:31.957Z,15.20
2022-11-14T17:25:18.106Z,10.20
2022-11-14T17:28:04.945Z,12.40
2022-11-14T17:30:50.538Z,13.30
2022-11-14T17:33:38.080Z,10.60
2022-11-14T17:36:27.341Z,19.70
2022-11-14T17:39:14.116Z,14.40
2022-11-14T17:42:00.839Z,24.90
2022-11-14T17:44:48.162Z,25.90
2022-11-14T17:47:33.581Z,28.70
2022-11-14T17:50:20.202Z,24.60
2022-11-14T17:53:05.564Z,23.10
2022-11-14T17:55:57.561Z,24.90
2022-11-14T17:58:44.045Z,32.10
2022-11-14T18:01:31.976Z,32.20
2022-11-14T18:04:18.369Z,30.40
2022-11-14T18:07:04.082Z,31.60
2022-11-14T18:09:50.466Z,31.10
2022-11-14T18:12:36.215Z,31.10
2022-11-14T18:15:27.606Z,30.70
2022-11-14T18:18:13.782Z,30.80
2022-11-14T18:21:08.700Z,31.40
2022-11-14T18:23:57.940Z,31.70
2022-11-14T18:26:43.251Z,31.50
2022-11-14T18:29:30.818Z,36.70
2022-11-14T18:32:16.630Z,35.70
2022-11-14T18:35:02.318Z,37.70
2022-11-14T18:37:47.665Z,31.20
2022-11-14T18:40:33.381Z,35.50
2022-11-14T18:43:19.158Z,32.50
2022-11-14T18:46:07.296Z,40.00
2022-11-14T18:48:57.397Z,38.60
2022-11-14T18:51:43.251Z,41.40
2022-11-14T18:54:28.737Z,41.40
2022-11-14T18:57:14.044Z,41.20
2022-11-14T18:59:59.794Z,42.30
2022-11-14T19:02:52.324Z,37.20
2022-11-14T19:05:37.950Z,33.80
2022-11-14T19:08:23.451Z,33.40
2022-11-14T19:11:30.773Z,32.80
2022-11-14T19:14:16.984Z,39.70
2022-11-14T19:17:04.857Z,32.30
2022-11-14T19:19:53.995Z,38.90
2022-11-14T19:22:39.775Z,32.50
2022-11-14T19:25:25.453Z,35.10
2022-11-14T19:28:10.935Z,36.50
2022-11-14T19:31:05.626Z,64.10
2022-11-14T19:33:51.076Z,99.40
2022-11-14T19:39:42.300Z,115.40
2022-11-14T19:42:28.126Z,128.40
2022-11-14T19:45:13.689Z,100.60
2022-11-14T19:47:58.984Z,65.60
2022-11-14T19:50:44.461Z,50.80
2022-11-14T19:53:34.091Z,44.10
2022-11-14T19:56:21.188Z,63.80
2022-11-14T19:59:12.843Z,58.50
2022-11-14T20:02:00.451Z,52.60
2022-11-14T20:04:47.112Z,72.60
2022-11-14T20:07:35.550Z,44.80
2022-11-14T20:10:21.660Z,37.10
2022-11-14T20:13:07.355Z,32.30
2022-11-14T20:15:53.140Z,35.80
2022-11-14T20:18:41.122Z,36.50
2022-11-14T20:21:30.346Z,33.10
2022-11-14T20:24:21.606Z,32.00
2022-11-14T20:27:07.212Z,27.80
2022-11-14T20:29:52.966Z,31.20
2022-11-14T20:32:38.493Z,130.20
2022-11-14T20:35:24.080Z,135.20
2022-11-14T20:38:09.635Z,198.40
2022-11-14T20:40:56.173Z,172.60
2022-11-14T20:43:43.484Z,216.00
2022-11-14T20:46:29.589Z,139.70
2022-11-14T20:49:15.361Z,107.60
2022-11-14T20:52:04.853Z,64.00
2022-11-14T20:54:50.511Z,53.60
2022-11-14T20:57:35.900Z,57.40
2022-11-14T21:00:21.522Z,45.90
2022-11-14T21:03:08.037Z,69.80
2022-11-14T21:05:54.994Z,69.90
2022-11-14T21:08:42.533Z,52.90
2022-11-14T21:11:28.231Z,54.40
2022-11-14T21:14:13.788Z,48.90
2022-11-14T21:16:58.968Z,97.20
2022-11-14T21:19:44.549Z,109.40
2022-11-14T21:22:30.162Z,102.50
2022-11-14T21:25:15.907Z,59.80
2022-11-14T21:28:01.381Z,44.60
2022-11-14T21:30:47.075Z,36.60
2022-11-14T21:33:33.171Z,60.40
2022-11-14T21:36:43.852Z,99.60
2022-11-14T21:39:26.242Z,110.20
2022-11-14T21:42:15.625Z,92.10
2022-11-14T21:45:04.630Z,88.80
2022-11-14T21:47:50.563Z,76.80
2022-11-14T21:50:36.249Z,80.30
2022-11-14T21:53:21.627Z,96.50
2022-11-14T21:56:16.459Z,140.10
2022-11-14T21:59:15.283Z,72.60
2022-11-14T22:02:19.558Z,58.20
2022-11-14T22:05:05.120Z,40.20
2022-11-14T22:07:50.734Z,46.90
2022-11-14T22:10:36.275Z,41.30
2022-11-14T22:13:22.065Z,72.40
2022-11-14T22:16:11.215Z,88.50
2022-11-14T22:19:01.944Z,123.10
2022-11-14T22:21:50.796Z,67.80
2022-11-14T22:24:36.093Z,53.50
2022-11-14T22:27:21.463Z,42.90
2022-11-14T22:30:07.951Z,41.30
2022-11-14T22:32:53.537Z,37.60
2022-11-14T22:35:39.510Z,32.90
2022-11-14T22:38:24.894Z,31.60
2022-11-14T22:41:17.532Z,30.80
2022-11-14T22:44:02.905Z,31.70
2022-11-14T22:46:48.763Z,39.10
2022-11-14T22:49:34.443Z,54.20
2022-11-14T22:52:20.017Z,70.90
2022-11-14T22:55:06.406Z,73.00
2022-11-14T22:57:51.748Z,64.80
2022-11-14T23:00:37.522Z,46.70
2022-11-14T23:03:23.516Z,34.80
2022-11-14T23:06:12.608Z,37.90
2022-11-14T23:08:58.381Z,31.10
2022-11-14T23:11:44.262Z,35.10
2022-11-14T23:14:29.746Z,31.90
2022-11-14T23:17:15.394Z,30.30
2022-11-14T23:20:01.117Z,32.20
2022-11-14T23:22:47.021Z,36.30
2022-11-14T23:25:32.271Z,35.70
2022-11-14T23:28:17.956Z,36.20
2022-11-14T23:31:04.665Z,33.00
2022-11-14T23:33:53.009Z,35.90
2022-11-14T23:36:38.669Z,30.50
2022-11-14T23:39:24.377Z,34.00
2022-11-14T23:42:10.075Z,33.60
2022-11-14T23:44:55.644Z,33.60
2022-11-14T23:47:41.171Z,33.70
2022-11-14T23:50:27.187Z,30.60
2022-11-14T23:53:12.870Z,30.60
2022-11-14T23:56:01.496Z,32.20
2022-11-14T23:58:46.827Z,35.60
